sensor_id;sensor_type;location;lat;lon;timestamp;temperature;humidity
21207;DHT22;10761;48.532;8.026;2023-03-29T00:00:47;9.70;94.70
21207;DHT22;10761;48.532;8.026;2023-03-29T00:03:14;9.60;96.10
21207;DHT22;10761;48.532;8.026;2023-03-29T00:05:39;9.70;91.70
21207;DHT22;10761;48.532;8.026;2023-03-29T00:08:06;9.70;87.50
21207;DHT22;10761;48.532;8.026;2023-03-29T00:10:33;9.70;82.90
21207;DHT22;10761;48.532;8.026;2023-03-29T00:12:59;9.80;71.10
21207;DHT22;10761;48.532;8.026;2023-03-29T00:15:25;9.90;66.40
21207;DHT22;10761;48.532;8.026;2023-03-29T00:17:51;9.90;63.90
21207;DHT22;10761;48.532;8.026;2023-03-29T00:20:16;9.90;58.90
21207;DHT22;10761;48.532;8.026;2023-03-29T00:22:43;9.90;65.00
21207;DHT22;10761;48.532;8.026;2023-03-29T00:25:10;9.80;66.90
21207;DHT22;10761;48.532;8.026;2023-03-29T00:27:36;9.70;91.50
21207;DHT22;10761;48.532;8.026;2023-03-29T00:30:03;9.70;66.60
21207;DHT22;10761;48.532;8.026;2023-03-29T00:32:30;9.70;67.10
21207;DHT22;10761;48.532;8.026;2023-03-29T00:34:56;9.60;68.90
21207;DHT22;10761;48.532;8.026;2023-03-29T00:37:22;9.60;71.70
21207;DHT22;10761;48.532;8.026;2023-03-29T00:39:51;9.50;74.70
21207;DHT22;10761;48.532;8.026;2023-03-29T00:42:18;9.50;83.70
21207;DHT22;10761;48.532;8.026;2023-03-29T00:47:39;9.60;76.60
21207;DHT22;10761;48.532;8.026;2023-03-29T00:52:38;9.70;92.30
21207;DHT22;10761;48.532;8.026;2023-03-29T00:55:08;9.60;93.50
21207;DHT22;10761;48.532;8.026;2023-03-29T00:57:36;9.60;83.10
21207;DHT22;10761;48.532;8.026;2023-03-29T01:00:04;9.60;91.50
21207;DHT22;10761;48.532;8.026;2023-03-29T01:02:32;9.70;73.80
21207;DHT22;10761;48.532;8.026;2023-03-29T01:05:03;9.80;69.00
21207;DHT22;10761;48.532;8.026;2023-03-29T01:07:36;10.30;41.40
21207;DHT22;10761;48.532;8.026;2023-03-29T01:10:04;10.50;39.00
21207;DHT22;10761;48.532;8.026;2023-03-29T01:12:39;10.60;46.50
21207;DHT22;10761;48.532;8.026;2023-03-29T01:15:09;10.40;70.60
21207;DHT22;10761;48.532;8.026;2023-03-29T01:17:37;10.30;82.30
21207;DHT22;10761;48.532;8.026;2023-03-29T01:20:09;10.20;91.60
21207;DHT22;10761;48.532;8.026;2023-03-29T01:28:21;10.00;99.90
21207;DHT22;10761;48.532;8.026;2023-03-29T01:30:58;10.00;99.90
21207;DHT22;10761;48.532;8.026;2023-03-29T01:33:37;10.00;99.90
21207;DHT22;10761;48.532;8.026;2023-03-29T01:36:25;9.90;99.90
21207;DHT22;10761;48.532;8.026;2023-03-29T01:38:54;9.90;99.90
21207;DHT22;10761;48.532;8.026;2023-03-29T01:41:21;9.90;99.90
21207;DHT22;10761;48.532;8.026;2023-03-29T01:44:27;9.90;99.90
21207;DHT22;10761;48.532;8.026;2023-03-29T01:46:47;10.00;99.90
21207;DHT22;10761;48.532;8.026;2023-03-29T01:49:35;10.00;99.90
21207;DHT22;10761;48.532;8.026;2023-03-29T01:52:12;10.10;99.90
21207;DHT22;10761;48.532;8.026;2023-03-29T01:54:45;10.10;95.10
21207;DHT22;10761;48.532;8.026;2023-03-29T01:57:13;10.20;97.20
21207;DHT22;10761;48.532;8.026;2023-03-29T01:59:41;10.10;99.90
21207;DHT22;10761;48.532;8.026;2023-03-29T02:02:11;10.10;99.90
21207;DHT22;10761;48.532;8.026;2023-03-29T02:04:42;10.00;99.90
21207;DHT22;10761;48.532;8.026;2023-03-29T02:07:14;10.00;99.90
21207;DHT22;10761;48.532;8.026;2023-03-29T02:09:41;10.00;99.90
21207;DHT22;10761;48.532;8.026;2023-03-29T02:12:08;10.00;99.90
21207;DHT22;10761;48.532;8.026;2023-03-29T02:14:35;10.00;99.90
21207;DHT22;10761;48.532;8.026;2023-03-29T02:17:21;10.00;99.90
21207;DHT22;10761;48.532;8.026;2023-03-29T02:19:51;10.10;99.00
21207;DHT22;10761;48.532;8.026;2023-03-29T02:22:26;10.00;99.90
21207;DHT22;10761;48.532;8.026;2023-03-29T02:24:54;10.10;99.50
21207;DHT22;10761;48.532;8.026;2023-03-29T02:27:25;10.10;96.80
21207;DHT22;10761;48.532;8.026;2023-03-29T02:29:51;10.10;96.10
21207;DHT22;10761;48.532;8.026;2023-03-29T02:32:33;10.20;91.60
21207;DHT22;10761;48.532;8.026;2023-03-29T02:35:05;10.20;91.20
21207;DHT22;10761;48.532;8.026;2023-03-29T02:37:33;10.20;86.20
21207;DHT22;10761;48.532;8.026;2023-03-29T02:40:01;10.20;99.90
21207;DHT22;10761;48.532;8.026;2023-03-29T02:42:32;10.10;93.00
21207;DHT22;10761;48.532;8.026;2023-03-29T02:44:59;10.10;96.90
21207;DHT22;10761;48.532;8.026;2023-03-29T02:47:32;10.10;99.90
21207;DHT22;10761;48.532;8.026;2023-03-29T02:50:00;10.00;97.90
21207;DHT22;10761;48.532;8.026;2023-03-29T02:52:30;10.00;94.50
21207;DHT22;10761;48.532;8.026;2023-03-29T02:54:58;10.00;98.30
21207;DHT22;10761;48.532;8.026;2023-03-29T02:57:27;10.00;99.20
21207;DHT22;10761;48.532;8.026;2023-03-29T02:59:55;10.00;99.90
21207;DHT22;10761;48.532;8.026;2023-03-29T03:02:22;10.00;97.20
21207;DHT22;10761;48.532;8.026;2023-03-29T03:04:50;10.10;92.10
21207;DHT22;10761;48.532;8.026;2023-03-29T03:07:16;10.10;95.00
21207;DHT22;10761;48.532;8.026;2023-03-29T03:09:43;10.10;99.90
21207;DHT22;10761;48.532;8.026;2023-03-29T03:12:08;10.10;99.90
21207;DHT22;10761;48.532;8.026;2023-03-29T03:14:34;10.00;99.90
21207;DHT22;10761;48.532;8.026;2023-03-29T03:16:59;10.00;99.90
21207;DHT22;10761;48.532;8.026;2023-03-29T03:19:25;9.90;99.90
21207;DHT22;10761;48.532;8.026;2023-03-29T03:21:51;9.80;99.90
21207;DHT22;10761;48.532;8.026;2023-03-29T03:24:16;9.80;99.90
21207;DHT22;10761;48.532;8.026;2023-03-29T03:26:42;9.80;99.90
21207;DHT22;10761;48.532;8.026;2023-03-29T03:29:11;9.80;99.90
21207;DHT22;10761;48.532;8.026;2023-03-29T03:31:37;9.90;99.90
21207;DHT22;10761;48.532;8.026;2023-03-29T03:34:06;9.90;99.90
21207;DHT22;10761;48.532;8.026;2023-03-29T03:36:33;10.00;99.90
21207;DHT22;10761;48.532;8.026;2023-03-29T03:38:59;10.00;99.90
21207;DHT22;10761;48.532;8.026;2023-03-29T03:41:26;10.10;99.90
21207;DHT22;10761;48.532;8.026;2023-03-29T03:43:51;10.20;94.60
21207;DHT22;10761;48.532;8.026;2023-03-29T03:46:17;10.30;76.10
21207;DHT22;10761;48.532;8.026;2023-03-29T03:48:44;10.50;62.10
21207;DHT22;10761;48.532;8.026;2023-03-29T03:51:10;10.60;54.80
21207;DHT22;10761;48.532;8.026;2023-03-29T03:53:37;10.70;50.90
21207;DHT22;10761;48.532;8.026;2023-03-29T03:56:02;10.70;57.70
21207;DHT22;10761;48.532;8.026;2023-03-29T03:58:34;10.80;63.90
21207;DHT22;10761;48.532;8.026;2023-03-29T04:01:00;10.70;69.40
21207;DHT22;10761;48.532;8.026;2023-03-29T04:03:26;10.60;67.10
21207;DHT22;10761;48.532;8.026;2023-03-29T04:05:51;10.60;75.60
21207;DHT22;10761;48.532;8.026;2023-03-29T04:08:18;10.60;79.00
21207;DHT22;10761;48.532;8.026;2023-03-29T04:10:51;10.60;83.50
21207;DHT22;10761;48.532;8.026;2023-03-29T04:13:17;10.70;88.00
21207;DHT22;10761;48.532;8.026;2023-03-29T04:15:43;10.60;81.60
21207;DHT22;10761;48.532;8.026;2023-03-29T04:18:10;10.70;90.20
21207;DHT22;10761;48.532;8.026;2023-03-29T04:20:37;10.60;92.70
21207;DHT22;10761;48.532;8.026;2023-03-29T04:23:02;10.60;93.80
21207;DHT22;10761;48.532;8.026;2023-03-29T04:25:28;10.60;94.90
21207;DHT22;10761;48.532;8.026;2023-03-29T04:27:54;10.60;96.00
21207;DHT22;10761;48.532;8.026;2023-03-29T04:30:20;10.60;94.70
21207;DHT22;10761;48.532;8.026;2023-03-29T04:32:46;10.60;98.30
21207;DHT22;10761;48.532;8.026;2023-03-29T04:35:11;10.60;99.90
21207;DHT22;10761;48.532;8.026;2023-03-29T04:37:37;10.60;99.90
21207;DHT22;10761;48.532;8.026;2023-03-29T04:40:06;10.60;99.90
21207;DHT22;10761;48.532;8.026;2023-03-29T04:42:34;10.50;99.90
21207;DHT22;10761;48.532;8.026;2023-03-29T04:45:00;10.40;99.90
21207;DHT22;10761;48.532;8.026;2023-03-29T04:47:26;10.40;99.90
21207;DHT22;10761;48.532;8.026;2023-03-29T04:49:55;10.30;99.90
21207;DHT22;10761;48.532;8.026;2023-03-29T04:52:21;10.30;99.90
21207;DHT22;10761;48.532;8.026;2023-03-29T04:54:47;10.20;99.90
21207;DHT22;10761;48.532;8.026;2023-03-29T04:57:12;10.10;99.90
21207;DHT22;10761;48.532;8.026;2023-03-29T04:59:38;10.10;99.90
21207;DHT22;10761;48.532;8.026;2023-03-29T05:02:03;10.00;99.90
21207;DHT22;10761;48.532;8.026;2023-03-29T05:04:30;10.00;99.90
21207;DHT22;10761;48.532;8.026;2023-03-29T05:06:56;9.90;99.90
21207;DHT22;10761;48.532;8.026;2023-03-29T05:09:23;9.80;99.90
21207;DHT22;10761;48.532;8.026;2023-03-29T05:11:50;9.80;99.90
21207;DHT22;10761;48.532;8.026;2023-03-29T05:14:16;9.70;99.90
21207;DHT22;10761;48.532;8.026;2023-03-29T05:16:41;9.70;99.90
21207;DHT22;10761;48.532;8.026;2023-03-29T05:19:08;9.70;99.90
21207;DHT22;10761;48.532;8.026;2023-03-29T05:21:34;9.70;99.90
21207;DHT22;10761;48.532;8.026;2023-03-29T05:24:00;9.70;99.90
21207;DHT22;10761;48.532;8.026;2023-03-29T05:26:26;9.70;99.90
21207;DHT22;10761;48.532;8.026;2023-03-29T05:28:52;9.70;99.90
21207;DHT22;10761;48.532;8.026;2023-03-29T05:31:18;9.70;99.90
21207;DHT22;10761;48.532;8.026;2023-03-29T05:33:46;9.70;99.90
21207;DHT22;10761;48.532;8.026;2023-03-29T05:36:13;9.80;99.90
21207;DHT22;10761;48.532;8.026;2023-03-29T05:38:40;9.80;99.90
21207;DHT22;10761;48.532;8.026;2023-03-29T05:41:06;9.70;99.90
21207;DHT22;10761;48.532;8.026;2023-03-29T05:43:32;9.70;99.90
21207;DHT22;10761;48.532;8.026;2023-03-29T05:45:58;9.70;99.90
21207;DHT22;10761;48.532;8.026;2023-03-29T05:48:24;9.60;99.90
21207;DHT22;10761;48.532;8.026;2023-03-29T05:50:51;9.60;99.90
21207;DHT22;10761;48.532;8.026;2023-03-29T05:53:18;9.60;1.00
21207;DHT22;10761;48.532;8.026;2023-03-29T05:55:44;9.50;1.00
21207;DHT22;10761;48.532;8.026;2023-03-29T05:58:11;9.50;1.00
21207;DHT22;10761;48.532;8.026;2023-03-29T06:00:37;9.50;1.00
21207;DHT22;10761;48.532;8.026;2023-03-29T06:03:04;9.50;99.90
21207;DHT22;10761;48.532;8.026;2023-03-29T06:05:30;9.60;1.00
21207;DHT22;10761;48.532;8.026;2023-03-29T06:07:55;9.60;1.00
21207;DHT22;10761;48.532;8.026;2023-03-29T06:10:22;9.60;1.00
21207;DHT22;10761;48.532;8.026;2023-03-29T06:12:49;9.60;1.00
21207;DHT22;10761;48.532;8.026;2023-03-29T06:15:16;9.70;1.00
21207;DHT22;10761;48.532;8.026;2023-03-29T06:17:42;9.70;99.90
21207;DHT22;10761;48.532;8.026;2023-03-29T06:20:11;9.80;1.00
21207;DHT22;10761;48.532;8.026;2023-03-29T06:22:37;9.80;1.00
21207;DHT22;10761;48.532;8.026;2023-03-29T06:25:04;9.90;1.00
21207;DHT22;10761;48.532;8.026;2023-03-29T06:27:30;9.90;1.00
21207;DHT22;10761;48.532;8.026;2023-03-29T06:29:56;9.90;1.00
21207;DHT22;10761;48.532;8.026;2023-03-29T06:32:21;9.90;1.00
21207;DHT22;10761;48.532;8.026;2023-03-29T06:34:47;10.00;1.00
21207;DHT22;10761;48.532;8.026;2023-03-29T06:37:13;10.00;1.00
21207;DHT22;10761;48.532;8.026;2023-03-29T06:39:38;10.00;1.00
21207;DHT22;10761;48.532;8.026;2023-03-29T06:42:05;10.00;1.00
21207;DHT22;10761;48.532;8.026;2023-03-29T06:44:31;10.00;1.00
21207;DHT22;10761;48.532;8.026;2023-03-29T06:46:57;10.00;1.00
21207;DHT22;10761;48.532;8.026;2023-03-29T06:49:22;10.00;1.00
21207;DHT22;10761;48.532;8.026;2023-03-29T06:51:48;10.10;1.00
21207;DHT22;10761;48.532;8.026;2023-03-29T06:54:13;10.20;1.00
21207;DHT22;10761;48.532;8.026;2023-03-29T06:56:39;10.30;1.00
21207;DHT22;10761;48.532;8.026;2023-03-29T06:59:05;10.30;1.00
21207;DHT22;10761;48.532;8.026;2023-03-29T07:01:31;10.50;1.00
21207;DHT22;10761;48.532;8.026;2023-03-29T07:03:58;10.60;1.00
21207;DHT22;10761;48.532;8.026;2023-03-29T07:06:29;10.70;1.00
21207;DHT22;10761;48.532;8.026;2023-03-29T07:08:55;10.90;55.30
21207;DHT22;10761;48.532;8.026;2023-03-29T07:11:24;11.00;99.90
21207;DHT22;10761;48.532;8.026;2023-03-29T07:13:50;11.10;1.00
21207;DHT22;10761;48.532;8.026;2023-03-29T07:16:15;11.20;1.00
21207;DHT22;10761;48.532;8.026;2023-03-29T07:18:43;11.30;1.00
21207;DHT22;10761;48.532;8.026;2023-03-29T07:21:10;11.30;1.00
21207;DHT22;10761;48.532;8.026;2023-03-29T07:23:37;11.40;1.00
21207;DHT22;10761;48.532;8.026;2023-03-29T07:26:06;11.40;1.00
21207;DHT22;10761;48.532;8.026;2023-03-29T07:28:32;11.50;1.00
21207;DHT22;10761;48.532;8.026;2023-03-29T07:31:07;11.60;1.00
21207;DHT22;10761;48.532;8.026;2023-03-29T07:33:35;11.80;1.00
21207;DHT22;10761;48.532;8.026;2023-03-29T07:36:01;12.00;1.00
21207;DHT22;10761;48.532;8.026;2023-03-29T07:38:27;12.10;1.00
21207;DHT22;10761;48.532;8.026;2023-03-29T07:40:53;12.20;1.00
21207;DHT22;10761;48.532;8.026;2023-03-29T07:43:20;12.30;1.00
21207;DHT22;10761;48.532;8.026;2023-03-29T07:45:45;12.40;1.00
21207;DHT22;10761;48.532;8.026;2023-03-29T07:48:11;12.50;1.00
21207;DHT22;10761;48.532;8.026;2023-03-29T07:50:37;12.50;1.00
21207;DHT22;10761;48.532;8.026;2023-03-29T07:53:03;12.70;1.00
21207;DHT22;10761;48.532;8.026;2023-03-29T07:55:29;12.80;1.00
21207;DHT22;10761;48.532;8.026;2023-03-29T07:57:55;12.90;1.00
21207;DHT22;10761;48.532;8.026;2023-03-29T08:00:21;13.00;99.90
21207;DHT22;10761;48.532;8.026;2023-03-29T08:02:49;13.00;99.90
21207;DHT22;10761;48.532;8.026;2023-03-29T08:05:17;13.10;99.90
21207;DHT22;10761;48.532;8.026;2023-03-29T08:07:44;13.30;99.90
21207;DHT22;10761;48.532;8.026;2023-03-29T08:10:15;13.40;99.90
21207;DHT22;10761;48.532;8.026;2023-03-29T08:12:42;13.50;99.90
21207;DHT22;10761;48.532;8.026;2023-03-29T08:15:09;13.70;99.90
21207;DHT22;10761;48.532;8.026;2023-03-29T08:17:36;13.70;99.90
21207;DHT22;10761;48.532;8.026;2023-03-29T08:20:03;13.80;99.90
21207;DHT22;10761;48.532;8.026;2023-03-29T08:22:31;13.90;99.90
21207;DHT22;10761;48.532;8.026;2023-03-29T08:24:56;14.00;99.90
21207;DHT22;10761;48.532;8.026;2023-03-29T08:27:23;14.10;99.90
21207;DHT22;10761;48.532;8.026;2023-03-29T08:29:48;14.30;96.90
21207;DHT22;10761;48.532;8.026;2023-03-29T08:32:14;14.40;99.90
21207;DHT22;10761;48.532;8.026;2023-03-29T08:34:40;14.50;96.10
21207;DHT22;10761;48.532;8.026;2023-03-29T08:37:06;14.80;60.60
21207;DHT22;10761;48.532;8.026;2023-03-29T08:39:33;15.00;42.80
21207;DHT22;10761;48.532;8.026;2023-03-29T08:50:01;13.80;30.50
21207;DHT22;10761;48.532;8.026;2023-03-29T08:52:48;13.80;43.30
21207;DHT22;10761;48.532;8.026;2023-03-29T08:58:01;13.60;30.70
21207;DHT22;10761;48.532;8.026;2023-03-29T09:00:39;13.60;23.70
21207;DHT22;10761;48.532;8.026;2023-03-29T09:03:10;13.60;16.70
21207;DHT22;10761;48.532;8.026;2023-03-29T09:05:42;13.70;13.40
21207;DHT22;10761;48.532;8.026;2023-03-29T09:08:14;13.90;28.70
21207;DHT22;10761;48.532;8.026;2023-03-29T09:10:45;14.20;18.90
21207;DHT22;10761;48.532;8.026;2023-03-29T09:19:14;14.80;1.00
21207;DHT22;10761;48.532;8.026;2023-03-29T09:35:21;14.90;1.00
21207;DHT22;10761;48.532;8.026;2023-03-29T09:37:49;14.60;1.00
21207;DHT22;10761;48.532;8.026;2023-03-29T09:40:27;14.50;1.00
21207;DHT22;10761;48.532;8.026;2023-03-29T09:42:56;14.30;1.00
21207;DHT22;10761;48.532;8.026;2023-03-29T09:45:23;14.20;1.00
21207;DHT22;10761;48.532;8.026;2023-03-29T09:48:04;14.30;1.00
21207;DHT22;10761;48.532;8.026;2023-03-29T09:50:46;14.40;1.00
21207;DHT22;10761;48.532;8.026;2023-03-29T09:53:14;14.60;1.00
21207;DHT22;10761;48.532;8.026;2023-03-29T09:55:41;14.80;1.00
21207;DHT22;10761;48.532;8.026;2023-03-29T09:58:16;14.90;1.00
21207;DHT22;10761;48.532;8.026;2023-03-29T10:00:43;14.90;1.00
21207;DHT22;10761;48.532;8.026;2023-03-29T10:03:19;14.90;1.00
21207;DHT22;10761;48.532;8.026;2023-03-29T10:05:48;14.80;1.00
21207;DHT22;10761;48.532;8.026;2023-03-29T10:08:20;14.90;1.00
21207;DHT22;10761;48.532;8.026;2023-03-29T10:10:47;14.90;1.00
21207;DHT22;10761;48.532;8.026;2023-03-29T10:13:19;14.80;1.00
21207;DHT22;10761;48.532;8.026;2023-03-29T10:16:04;14.90;1.00
21207;DHT22;10761;48.532;8.026;2023-03-29T10:18:31;15.00;1.00
21207;DHT22;10761;48.532;8.026;2023-03-29T10:21:02;15.10;1.00
21207;DHT22;10761;48.532;8.026;2023-03-29T10:23:33;15.20;1.00
21207;DHT22;10761;48.532;8.026;2023-03-29T10:26:00;15.40;1.00
21207;DHT22;10761;48.532;8.026;2023-03-29T10:28:29;15.40;1.00
21207;DHT22;10761;48.532;8.026;2023-03-29T10:30:57;15.60;1.00
21207;DHT22;10761;48.532;8.026;2023-03-29T10:33:28;15.80;1.00
21207;DHT22;10761;48.532;8.026;2023-03-29T10:35:55;15.90;1.00
21207;DHT22;10761;48.532;8.026;2023-03-29T10:38:23;15.80;1.00
21207;DHT22;10761;48.532;8.026;2023-03-29T10:40:53;15.70;1.00
21207;DHT22;10761;48.532;8.026;2023-03-29T10:43:25;15.50;1.00
21207;DHT22;10761;48.532;8.026;2023-03-29T10:45:55;15.50;1.00
21207;DHT22;10761;48.532;8.026;2023-03-29T10:48:28;15.40;1.00
21207;DHT22;10761;48.532;8.026;2023-03-29T10:50:58;15.50;1.00
21207;DHT22;10761;48.532;8.026;2023-03-29T10:53:27;15.60;1.00
21207;DHT22;10761;48.532;8.026;2023-03-29T11:01:19;16.10;1.00
21207;DHT22;10761;48.532;8.026;2023-03-29T11:04:06;16.30;1.00
21207;DHT22;10761;48.532;8.026;2023-03-29T11:06:45;16.20;1.00
21207;DHT22;10761;48.532;8.026;2023-03-29T11:09:48;16.30;1.00
21207;DHT22;10761;48.532;8.026;2023-03-29T11:15:02;16.60;1.00
21207;DHT22;10761;48.532;8.026;2023-03-29T11:18:09;16.50;1.00
21207;DHT22;10761;48.532;8.026;2023-03-29T11:23:49;16.00;1.00
21207;DHT22;10761;48.532;8.026;2023-03-29T11:29:08;16.00;1.00
21207;DHT22;10761;48.532;8.026;2023-03-29T11:34:46;16.00;1.00
21207;DHT22;10761;48.532;8.026;2023-03-29T11:37:22;15.90;1.00
21207;DHT22;10761;48.532;8.026;2023-03-29T11:42:32;15.90;1.00
21207;DHT22;10761;48.532;8.026;2023-03-29T11:45:01;15.90;1.00
21207;DHT22;10761;48.532;8.026;2023-03-29T11:47:32;15.90;1.00
21207;DHT22;10761;48.532;8.026;2023-03-29T11:50:18;15.90;1.00
21207;DHT22;10761;48.532;8.026;2023-03-29T11:52:59;16.00;1.00
21207;DHT22;10761;48.532;8.026;2023-03-29T11:55:29;16.10;1.00
21207;DHT22;10761;48.532;8.026;2023-03-29T11:58:33;16.30;1.00
21207;DHT22;10761;48.532;8.026;2023-03-29T12:01:12;16.40;1.00
21207;DHT22;10761;48.532;8.026;2023-03-29T12:03:41;16.50;1.00
21207;DHT22;10761;48.532;8.026;2023-03-29T12:06:27;16.60;1.00
21207;DHT22;10761;48.532;8.026;2023-03-29T12:09:33;16.50;1.00
21207;DHT22;10761;48.532;8.026;2023-03-29T12:12:21;16.50;1.00
21207;DHT22;10761;48.532;8.026;2023-03-29T12:15:06;16.60;1.00
21207;DHT22;10761;48.532;8.026;2023-03-29T12:18:06;16.70;1.00
21207;DHT22;10761;48.532;8.026;2023-03-29T12:20:35;16.70;1.00
21207;DHT22;10761;48.532;8.026;2023-03-29T12:23:05;16.90;1.00
21207;DHT22;10761;48.532;8.026;2023-03-29T12:25:57;17.10;1.00
21207;DHT22;10761;48.532;8.026;2023-03-29T12:29:09;17.80;1.00
21207;DHT22;10761;48.532;8.026;2023-03-29T12:31:51;18.10;1.00
21207;DHT22;10761;48.532;8.026;2023-03-29T12:34:48;18.10;1.00
21207;DHT22;10761;48.532;8.026;2023-03-29T12:39:39;17.50;1.00
21207;DHT22;10761;48.532;8.026;2023-03-29T12:42:41;17.10;1.00
21207;DHT22;10761;48.532;8.026;2023-03-29T12:45:13;17.00;1.00
21207;DHT22;10761;48.532;8.026;2023-03-29T12:47:44;17.00;1.00
21207;DHT22;10761;48.532;8.026;2023-03-29T12:50:34;16.90;1.00
21207;DHT22;10761;48.532;8.026;2023-03-29T12:53:15;17.10;1.00
21207;DHT22;10761;48.532;8.026;2023-03-29T13:01:20;17.70;1.00
21207;DHT22;10761;48.532;8.026;2023-03-29T13:03:50;17.70;1.00
21207;DHT22;10761;48.532;8.026;2023-03-29T13:08:59;18.00;1.00
21207;DHT22;10761;48.532;8.026;2023-03-29T13:11:36;18.20;1.00
21207;DHT22;10761;48.532;8.026;2023-03-29T13:14:12;18.30;1.00
21207;DHT22;10761;48.532;8.026;2023-03-29T13:16:42;18.60;1.00
21207;DHT22;10761;48.532;8.026;2023-03-29T13:22:18;18.50;1.00
21207;DHT22;10761;48.532;8.026;2023-03-29T13:33:14;18.70;1.00
21207;DHT22;10761;48.532;8.026;2023-03-29T13:36:13;18.80;1.00
21207;DHT22;10761;48.532;8.026;2023-03-29T13:38:45;18.90;1.00
21207;DHT22;10761;48.532;8.026;2023-03-29T13:41:26;18.90;1.00
21207;DHT22;10761;48.532;8.026;2023-03-29T13:43:54;18.90;1.00
21207;DHT22;10761;48.532;8.026;2023-03-29T13:49:23;20.00;1.00
21207;DHT22;10761;48.532;8.026;2023-03-29T13:52:23;21.30;1.00
21207;DHT22;10761;48.532;8.026;2023-03-29T13:54:51;21.50;1.00
21207;DHT22;10761;48.532;8.026;2023-03-29T13:57:20;21.10;1.00
21207;DHT22;10761;48.532;8.026;2023-03-29T13:59:56;20.70;1.00
21207;DHT22;10761;48.532;8.026;2023-03-29T14:02:29;20.70;1.00
21207;DHT22;10761;48.532;8.026;2023-03-29T14:04:58;20.70;1.00
21207;DHT22;10761;48.532;8.026;2023-03-29T14:07:27;20.30;1.00
21207;DHT22;10761;48.532;8.026;2023-03-29T14:09:55;20.10;1.00
21207;DHT22;10761;48.532;8.026;2023-03-29T14:12:22;19.70;1.00
21207;DHT22;10761;48.532;8.026;2023-03-29T14:14:48;19.50;1.00
21207;DHT22;10761;48.532;8.026;2023-03-29T14:17:20;19.50;1.00
21207;DHT22;10761;48.532;8.026;2023-03-29T14:19:47;19.40;1.00
21207;DHT22;10761;48.532;8.026;2023-03-29T14:22:18;19.50;1.00
21207;DHT22;10761;48.532;8.026;2023-03-29T14:24:50;19.90;1.00
21207;DHT22;10761;48.532;8.026;2023-03-29T14:27:16;20.20;1.00
21207;DHT22;10761;48.532;8.026;2023-03-29T14:29:47;21.00;1.00
21207;DHT22;10761;48.532;8.026;2023-03-29T14:32:28;21.30;1.00
21207;DHT22;10761;48.532;8.026;2023-03-29T14:34:53;21.30;1.00
21207;DHT22;10761;48.532;8.026;2023-03-29T14:37:28;21.30;1.00
21207;DHT22;10761;48.532;8.026;2023-03-29T14:39:55;20.80;1.00
21207;DHT22;10761;48.532;8.026;2023-03-29T14:42:27;21.00;1.00
21207;DHT22;10761;48.532;8.026;2023-03-29T14:45:00;21.20;1.00
21207;DHT22;10761;48.532;8.026;2023-03-29T14:47:29;21.40;1.00
21207;DHT22;10761;48.532;8.026;2023-03-29T14:49:57;21.90;1.00
21207;DHT22;10761;48.532;8.026;2023-03-29T14:52:29;22.20;1.00
21207;DHT22;10761;48.532;8.026;2023-03-29T14:54:58;22.60;1.00
21207;DHT22;10761;48.532;8.026;2023-03-29T14:57:26;22.80;1.00
21207;DHT22;10761;48.532;8.026;2023-03-29T14:59:57;22.30;1.00
21207;DHT22;10761;48.532;8.026;2023-03-29T15:02:29;22.00;1.00
21207;DHT22;10761;48.532;8.026;2023-03-29T15:04:57;22.10;1.00
21207;DHT22;10761;48.532;8.026;2023-03-29T15:07:26;22.30;1.00
21207;DHT22;10761;48.532;8.026;2023-03-29T15:09:53;22.10;1.00
21207;DHT22;10761;48.532;8.026;2023-03-29T15:12:19;22.30;1.00
21207;DHT22;10761;48.532;8.026;2023-03-29T15:14:50;22.30;1.00
21207;DHT22;10761;48.532;8.026;2023-03-29T15:19:58;21.60;1.00
21207;DHT22;10761;48.532;8.026;2023-03-29T15:22:31;20.90;1.00
21207;DHT22;10761;48.532;8.026;2023-03-29T15:24:57;20.50;1.00
21207;DHT22;10761;48.532;8.026;2023-03-29T15:27:23;20.10;1.00
21207;DHT22;10761;48.532;8.026;2023-03-29T15:30:08;20.00;1.00
21207;DHT22;10761;48.532;8.026;2023-03-29T15:32:39;20.10;1.00
21207;DHT22;10761;48.532;8.026;2023-03-29T15:35:08;20.20;1.00
21207;DHT22;10761;48.532;8.026;2023-03-29T15:37:47;20.30;1.00
21207;DHT22;10761;48.532;8.026;2023-03-29T15:40:25;20.40;1.00
21207;DHT22;10761;48.532;8.026;2023-03-29T15:42:58;20.30;1.00
21207;DHT22;10761;48.532;8.026;2023-03-29T15:45:24;20.20;1.00
21207;DHT22;10761;48.532;8.026;2023-03-29T15:47:50;20.00;1.00
21207;DHT22;10761;48.532;8.026;2023-03-29T15:50:16;19.80;1.00
21207;DHT22;10761;48.532;8.026;2023-03-29T15:52:41;19.70;1.00
21207;DHT22;10761;48.532;8.026;2023-03-29T15:55:08;19.60;1.00
21207;DHT22;10761;48.532;8.026;2023-03-29T15:57:34;19.60;1.00
21207;DHT22;10761;48.532;8.026;2023-03-29T16:00:00;19.60;1.00
21207;DHT22;10761;48.532;8.026;2023-03-29T16:02:27;19.40;1.00
21207;DHT22;10761;48.532;8.026;2023-03-29T16:04:52;19.40;1.00
21207;DHT22;10761;48.532;8.026;2023-03-29T16:07:18;19.30;1.00
21207;DHT22;10761;48.532;8.026;2023-03-29T16:09:45;19.20;1.00
21207;DHT22;10761;48.532;8.026;2023-03-29T16:12:12;19.10;1.00
21207;DHT22;10761;48.532;8.026;2023-03-29T16:14:37;19.00;1.00
21207;DHT22;10761;48.532;8.026;2023-03-29T16:17:04;18.90;1.00
21207;DHT22;10761;48.532;8.026;2023-03-29T16:19:30;18.90;1.00
21207;DHT22;10761;48.532;8.026;2023-03-29T16:21:58;18.70;1.00
21207;DHT22;10761;48.532;8.026;2023-03-29T16:24:26;18.60;1.00
21207;DHT22;10761;48.532;8.026;2023-03-29T16:26:52;18.60;1.00
21207;DHT22;10761;48.532;8.026;2023-03-29T16:29:18;18.50;1.00
21207;DHT22;10761;48.532;8.026;2023-03-29T16:31:45;18.40;1.00
21207;DHT22;10761;48.532;8.026;2023-03-29T16:34:12;18.40;1.00
21207;DHT22;10761;48.532;8.026;2023-03-29T16:36:41;18.40;1.00
21207;DHT22;10761;48.532;8.026;2023-03-29T16:39:09;18.40;1.00
21207;DHT22;10761;48.532;8.026;2023-03-29T16:41:35;18.40;1.00
21207;DHT22;10761;48.532;8.026;2023-03-29T16:44:01;18.40;1.00
21207;DHT22;10761;48.532;8.026;2023-03-29T16:46:27;18.50;1.00
21207;DHT22;10761;48.532;8.026;2023-03-29T16:48:53;18.50;1.00
21207;DHT22;10761;48.532;8.026;2023-03-29T16:51:19;18.50;1.00
21207;DHT22;10761;48.532;8.026;2023-03-29T16:53:46;18.50;1.00
21207;DHT22;10761;48.532;8.026;2023-03-29T16:56:18;18.50;1.00
21207;DHT22;10761;48.532;8.026;2023-03-29T16:58:44;18.40;1.00
21207;DHT22;10761;48.532;8.026;2023-03-29T17:01:14;18.40;1.00
21207;DHT22;10761;48.532;8.026;2023-03-29T17:03:40;18.30;1.00
21207;DHT22;10761;48.532;8.026;2023-03-29T17:06:07;18.30;1.00
21207;DHT22;10761;48.532;8.026;2023-03-29T17:08:33;18.20;1.00
21207;DHT22;10761;48.532;8.026;2023-03-29T17:10:59;18.20;1.00
21207;DHT22;10761;48.532;8.026;2023-03-29T17:13:26;18.10;1.00
21207;DHT22;10761;48.532;8.026;2023-03-29T17:15:53;18.00;1.00
21207;DHT22;10761;48.532;8.026;2023-03-29T17:18:23;17.90;1.00
21207;DHT22;10761;48.532;8.026;2023-03-29T17:20:50;17.80;1.00
21207;DHT22;10761;48.532;8.026;2023-03-29T17:23:17;17.80;1.00
21207;DHT22;10761;48.532;8.026;2023-03-29T17:25:43;17.70;1.00
21207;DHT22;10761;48.532;8.026;2023-03-29T17:28:10;17.60;1.00